Time;durP1;ratioP1;P1;durP2;ratioP2;P2;SDS_P1;SDS_P2;PMS_P1;PMS_P2;Temp;Humidity;BMP_temperature;BMP_pressure;BME280_temperature;BME280_humidity;BME280_pressure;Samples;Min_cycle;Max_cycle;Signal;HPM_P1;HPM_P2
2023/11/01 00:01:31;;;;;;;4.70;4.30;;;9.40;99.90;;;9.78;100.00;97416.97;10428245;28;20250;-65
2023/11/01 00:06:35;;;;;;;2.90;2.70;;;9.30;99.90;;;9.85;100.00;97406.28;10430755;28;20579;-63
2023/11/01 00:11:39;;;;;;;2.35;2.20;;;9.40;99.90;;;9.87;100.00;97414.00;10429592;28;20245;-65
2023/11/01 00:16:43;;;;;;;3.03;2.67;;;9.50;99.90;;;10.09;100.00;97411.78;10431385;28;20798;-64
2023/11/01 00:21:46;;;;;;;3.35;2.47;;;9.60;99.90;;;10.50;100.00;97407.94;10430798;28;20247;-64
2023/11/01 00:26:51;;;;;;;2.90;2.70;;;10.00;99.90;;;10.23;100.00;97409.94;10434105;28;20949;-65
2023/11/01 00:31:54;;;;;;;3.50;2.88;;;9.80;99.90;;;10.13;100.00;97407.72;10434697;28;20233;-64
2023/11/01 00:36:57;;;;;;;4.43;3.20;;;9.70;99.90;;;10.25;100.00;97405.78;10434055;28;20314;-67
2023/11/01 00:42:02;;;;;;;4.00;3.70;;;9.80;99.90;;;10.15;100.00;97411.22;10439455;28;20233;-67
2023/11/01 00:47:06;;;;;;;4.68;4.35;;;9.80;99.90;;;10.14;100.00;97412.03;10437019;28;20217;-64
2023/11/01 00:52:09;;;;;;;5.13;4.72;;;9.70;99.90;;;9.96;100.00;97404.31;10430242;28;20225;-63
2023/11/01 00:57:14;;;;;;;4.65;4.35;;;9.60;99.90;;;9.90;100.00;97399.75;10437430;28;20229;-64
2023/11/01 01:02:17;;;;;;;4.20;3.90;;;9.50;99.90;;;9.93;100.00;97407.56;10448474;28;20236;-63
2023/11/01 01:07:20;;;;;;;4.00;3.65;;;9.50;99.90;;;10.24;100.00;97391.25;10447442;28;20604;-64
2023/11/01 01:12:25;;;;;;;5.35;4.18;;;9.70;99.90;;;10.01;100.00;97384.97;10445417;28;20267;-63
2023/11/01 01:17:28;;;;;;;4.00;3.70;;;9.50;99.90;;;9.92;100.00;97382.81;10446137;28;20780;-67
2023/11/01 01:22:31;;;;;;;3.53;3.25;;;9.40;99.90;;;9.80;100.00;97377.09;10453183;28;20233;-66
2023/11/01 01:27:36;;;;;;;3.75;3.45;;;9.40;99.90;;;9.89;100.00;97380.13;10440073;28;20851;-67
2023/11/01 01:32:39;;;;;;;3.58;3.38;;;9.40;99.90;;;9.75;100.00;97378.53;10440727;28;20232;-65
2023/11/01 01:37:43;;;;;;;4.13;3.30;;;9.30;99.90;;;9.69;100.00;97378.19;10436867;28;20225;-67
2023/11/01 01:42:47;;;;;;;3.40;3.20;;;9.20;99.90;;;9.75;100.00;97373.41;10438086;28;20225;-66
2023/11/01 01:47:51;;;;;;;3.53;3.22;;;9.30;99.90;;;9.69;100.00;97368.00;10439026;28;20244;-65
2023/11/01 01:52:54;;;;;;;4.10;3.78;;;9.20;99.90;;;9.69;100.00;97365.44;10436018;28;20769;-66
2023/11/01 01:58:00;;;;;;;4.07;3.60;;;9.20;99.90;;;9.77;100.00;97364.19;10435611;28;20229;-67
2023/11/01 02:03:03;;;;;;;4.10;2.90;;;9.20;99.90;;;9.75;100.00;97353.00;10438069;28;20731;-67
2023/11/01 02:08:07;;;;;;;3.25;2.67;;;9.20;99.90;;;9.62;100.00;97335.31;10436360;28;20229;-67
2023/11/01 02:13:12;;;;;;;5.93;3.22;;;9.10;99.90;;;9.63;100.00;97326.84;10436499;28;20571;-67
2023/11/01 02:18:16;;;;;;;3.83;3.42;;;9.20;99.90;;;9.47;100.00;97320.06;10438493;28;20223;-65
2023/11/01 02:23:32;;;;;;;3.78;2.88;;;9.00;99.90;;;9.34;100.00;97307.47;10437924;28;20282;-65
2023/11/01 02:28:35;;;;;;;4.60;3.00;;;8.90;99.90;;;9.35;100.00;97304.13;10434279;28;20227;-65
2023/11/01 02:33:38;;;;;;;4.20;3.03;;;8.90;99.90;;;9.34;100.00;97305.81;10437447;28;20233;-64
2023/11/01 02:38:44;;;;;;;3.15;2.95;;;8.90;99.90;;;9.31;100.00;97303.09;10437971;28;20228;-64
2023/11/01 02:43:47;;;;;;;3.30;2.55;;;8.80;99.90;;;9.29;100.00;97304.69;10435758;28;20316;-64
2023/11/01 02:48:50;;;;;;;3.47;3.17;;;8.80;99.90;;;9.27;100.00;97307.94;10435467;28;20686;-64
2023/11/01 02:53:55;;;;;;;3.35;3.15;;;8.80;99.90;;;9.35;100.00;97307.53;10434776;28;21031;-63
2023/11/01 02:58:58;;;;;;;3.55;3.28;;;8.90;99.90;;;9.33;100.00;97311.72;10433145;28;20232;-65
2023/11/01 03:04:01;;;;;;;2.92;2.58;;;8.80;99.90;;;9.31;100.00;97303.09;10434946;28;20233;-63
2023/11/01 03:09:08;;;;;;;3.13;2.67;;;8.80;99.90;;;9.34;100.00;97308.34;10434004;28;20282;-64
2023/11/01 03:14:11;;;;;;;3.78;2.72;;;8.80;99.90;;;9.33;100.00;97306.63;10445597;28;20229;-64
2023/11/01 03:19:15;;;;;;;2.95;2.63;;;8.80;99.90;;;9.33;100.00;97309.16;10440702;28;20229;-64
2023/11/01 03:24:19;;;;;;;3.20;2.88;;;8.80;99.90;;;9.34;100.00;97297.28;10430749;28;20236;-65
2023/11/01 03:29:22;;;;;;;3.15;2.65;;;8.80;99.90;;;9.31;100.00;97286.94;10433016;28;20225;-64
2023/11/01 03:34:25;;;;;;;2.60;2.40;;;8.70;99.90;;;9.09;100.00;97284.91;10428908;28;20239;-64
2023/11/01 03:39:30;;;;;;;4.03;2.42;;;8.50;99.90;;;9.00;100.00;97286.16;10427726;28;20704;-65
2023/11/01 03:44:33;;;;;;;4.97;2.60;;;8.50;99.90;;;8.91;100.00;97285.66;10431989;28;20225;-65
2023/11/01 03:49:37;;;;;;;2.22;2.13;;;8.40;99.90;;;8.90;100.00;97293.22;10431325;28;20221;-65
2023/11/01 03:54:41;;;;;;;3.03;2.80;;;8.40;99.90;;;9.04;100.00;97277.00;10430491;28;20304;-64
2023/11/01 03:59:45;;;;;;;2.88;2.67;;;8.40;99.90;;;8.94;100.00;97279.88;10432006;28;20221;-67
2023/11/01 04:04:48;;;;;;;3.05;2.60;;;8.30;99.90;;;8.80;100.00;97261.28;10435392;28;20620;-67
2023/11/01 04:09:52;;;;;;;2.83;2.63;;;8.20;99.90;;;8.52;100.00;97253.81;10438797;28;20229;-66
2023/11/01 04:14:55;;;;;;;2.78;2.58;;;8.10;99.90;;;8.54;100.00;97267.50;10443340;28;20247;-66
2023/11/01 04:19:59;;;;;;;4.22;2.30;;;8.10;99.90;;;8.61;100.00;97258.53;10459214;28;20220;-66
2023/11/01 04:25:06;;;;;;;3.05;2.38;;;8.10;99.90;;;8.52;100.00;97251.25;10454152;28;20232;-67
2023/11/01 04:30:10;;;;;;;2.77;2.50;;;8.00;99.90;;;8.31;100.00;97250.91;10461254;28;20235;-67
2023/11/01 04:35:13;;;;;;;2.53;2.43;;;7.80;99.90;;;8.34;100.00;97243.44;10456310;28;20263;-66
2023/11/01 04:40:18;;;;;;;2.93;2.73;;;7.80;99.90;;;8.37;100.00;97258.91;10446289;28;20262;-67
2023/11/01 04:45:23;;;;;;;2.63;2.43;;;7.80;99.90;;;8.37;100.00;97248.72;10447138;28;20325;-67
2023/11/01 04:50:26;;;;;;;2.47;2.27;;;7.80;99.90;;;8.41;100.00;97245.56;10442265;28;20221;-67
2023/11/01 04:55:31;;;;;;;2.77;2.40;;;7.90;99.90;;;8.47;100.00;97239.94;10443667;28;20221;-65
2023/11/01 05:00:34;;;;;;;2.53;2.33;;;7.90;99.90;;;8.42;100.00;97232.06;10444461;28;20220;-67
2023/11/01 05:05:37;;;;;;;2.77;2.53;;;7.90;99.90;;;8.35;100.00;97215.53;10444823;28;20553;-67
2023/11/01 05:10:42;;;;;;;2.87;2.67;;;7.80;99.90;;;8.40;100.00;97213.25;10444655;28;20232;-66
2023/11/01 05:15:45;;;;;;;2.70;2.50;;;7.80;99.90;;;8.32;100.00;97214.47;10444135;28;20225;-66
2023/11/01 05:20:48;;;;;;;3.00;2.50;;;7.80;99.90;;;8.27;100.00;97213.34;10441552;28;20241;-66
2023/11/01 05:25:53;;;;;;;3.67;2.10;;;7.70;99.90;;;8.14;100.00;97211.78;10443834;28;20237;-66
2023/11/01 05:30:56;;;;;;;2.70;2.50;;;7.60;99.90;;;8.10;100.00;97210.75;10441234;28;20228;-66
2023/11/01 05:36:06;;;;;;;2.40;2.30;;;7.60;99.90;;;8.13;100.00;97203.28;10438613;28;20229;-67
2023/11/01 05:41:11;;;;;;;2.50;2.30;;;7.50;99.90;;;8.02;100.00;97203.47;10435675;28;20888;-65
2023/11/01 05:46:14;;;;;;;4.30;3.03;;;7.40;99.90;;;7.92;100.00;97186.81;10435900;28;20620;-66
2023/11/01 05:51:17;;;;;;;3.70;3.10;;;7.40;99.90;;;7.87;100.00;97184.03;10432337;28;20779;-66
2023/11/01 05:56:23;;;;;;;4.03;3.53;;;7.40;99.90;;;7.90;100.00;97185.88;10432303;28;20220;-66
2023/11/01 06:01:26;;;;;;;3.10;2.73;;;7.30;99.90;;;7.75;100.00;97193.47;10430426;28;20240;-65
2023/11/01 06:06:29;;;;;;;2.90;2.70;;;7.20;99.90;;;7.67;100.00;97199.81;10428489;28;20225;-67
2023/11/01 06:11:34;;;;;;;2.50;2.30;;;7.10;99.90;;;7.58;100.00;97201.81;10432039;28;20226;-66
2023/11/01 06:16:37;;;;;;;2.90;2.60;;;7.10;99.90;;;7.58;100.00;97199.28;10432000;28;20217;-66
2023/11/01 06:21:40;;;;;;;2.70;2.50;;;7.10;99.90;;;7.62;100.00;97196.13;10430087;28;20245;-67
2023/11/01 06:26:45;;;;;;;2.57;2.40;;;7.10;99.90;;;7.72;100.00;97194.97;10429224;28;20728;-66
2023/11/01 06:31:48;;;;;;;3.00;2.80;;;7.20;99.90;;;7.70;100.00;97184.72;10431161;28;20292;-66
2023/11/01 06:36:51;;;;;;;2.70;2.53;;;7.20;99.90;;;7.81;100.00;97181.13;10445606;28;20235;-67
2023/11/01 06:41:56;;;;;;;6.47;2.80;;;7.30;99.90;;;8.00;100.00;97183.03;10441476;28;20229;-66
2023/11/01 06:46:59;;;;;;;7.87;5.33;;;7.40;99.90;;;8.16;100.00;97186.44;10444555;28;20225;-65
2023/11/01 06:52:03;;;;;;;3.00;2.73;;;7.60;99.90;;;8.49;100.00;97180.66;10442146;28;20225;-68
2023/11/01 06:57:07;;;;;;;3.87;3.27;;;8.00;99.90;;;8.76;100.00;97175.28;10441573;28;20878;-65
2023/11/01 07:02:11;;;;;;;5.20;4.70;;;8.10;99.90;;;9.05;100.00;97170.84;10441663;28;20237;-66
2023/11/01 07:07:14;;;;;;;5.43;4.32;;;8.30;99.90;;;9.42;100.00;97184.66;10437767;28;20229;-65
2023/11/01 07:12:21;;;;;;;4.35;3.95;;;8.70;99.90;;;9.63;100.00;97183.97;10437709;28;20261;-65
2023/11/01 07:17:27;;;;;;;4.40;4.10;;;8.90;99.90;;;9.77;100.00;97177.88;10439731;28;20274;-66
2023/11/01 07:22:30;;;;;;;3.83;3.45;;;8.90;99.90;;;9.77;100.00;97177.88;10441492;28;20233;-66
2023/11/01 07:27:35;;;;;;;2.95;2.78;;;9.10;99.90;;;9.81;100.00;97174.66;10442940;28;20317;-64
2023/11/01 07:32:38;;;;;;;3.20;2.90;;;9.10;99.90;;;9.80;100.00;97180.56;10444540;28;20228;-64
2023/11/01 07:37:41;;;;;;;2.85;2.75;;;9.10;99.90;;;9.78;100.00;97178.75;10439387;28;20709;-66
2023/11/01 07:42:46;;;;;;;2.72;2.63;;;9.00;99.90;;;9.62;100.00;97166.94;10431600;28;20450;-66
2023/11/01 07:47:49;;;;;;;3.05;2.85;;;8.90;99.90;;;9.85;100.00;97166.38;10432877;28;20237;-66
2023/11/01 07:52:52;;;;;;;2.97;2.75;;;9.10;99.90;;;9.92;100.00;97165.84;10433307;28;20770;-66
2023/11/01 07:57:57;;;;;;;3.42;3.13;;;9.30;99.90;;;10.02;100.00;97159.53;10437223;28;20235;-66
2023/11/01 08:03:00;;;;;;;6.88;6.28;;;9.50;99.90;;;10.32;100.00;97147.34;10436605;28;20229;-65
2023/11/01 08:08:05;;;;;;;3.92;3.63;;;9.80;99.90;;;10.72;100.00;97135.50;10434325;28;20598;-65
2023/11/01 08:13:10;;;;;;;3.25;2.90;;;10.20;99.90;;;11.01;100.00;97134.22;10441797;28;20239;-65
2023/11/01 08:18:15;;;;;;;3.05;2.80;;;10.40;99.90;;;11.19;100.00;97134.16;10435212;28;20228;-66
2023/11/01 08:23:18;;;;;;;3.10;2.70;;;10.60;99.90;;;11.49;100.00;97135.44;10431573;28;20233;-66
2023/11/01 08:28:22;;;;;;;3.33;3.03;;;10.80;99.90;;;11.63;100.00;97127.47;10429559;28;20232;-66
2023/11/01 08:33:26;;;;;;;3.83;3.13;;;11.00;99.90;;;11.68;100.00;97116.59;10432203;28;20237;-65
2023/11/01 08:38:29;;;;;;;4.00;3.63;;;11.20;99.90;;;12.03;100.00;97119.72;10439903;28;20307;-66
2023/11/01 08:43:34;;;;;;;3.00;2.80;;;11.50;99.90;;;12.36;100.00;97114.13;10436183;28;20316;-66
2023/11/01 08:48:37;;;;;;;4.18;2.70;;;11.90;99.90;;;12.45;100.00;97109.38;10432477;28;20229;-66
2023/11/01 08:53:40;;;;;;;3.40;3.10;;;11.90;99.90;;;12.62;100.00;97103.19;10435641;28;20240;-66
2023/11/01 08:58:45;;;;;;;3.17;2.75;;;12.10;99.90;;;12.87;100.00;97098.91;10440815;28;20224;-65
2023/11/01 09:03:48;;;;;;;3.33;3.00;;;12.30;99.90;;;13.23;100.00;97104.47;10440730;28;20233;-66
2023/11/01 09:08:51;;;;;;;3.47;2.60;;;12.80;99.90;;;13.63;100.00;97102.41;10438803;28;20232;-66
2023/11/01 09:13:56;;;;;;;3.75;3.45;;;13.20;99.90;;;13.95;100.00;97101.75;10436063;28;20232;-64
2023/11/01 09:18:59;;;;;;;3.70;3.40;;;13.50;99.90;;;14.12;100.00;97103.97;10437535;28;20824;-66
2023/11/01 09:24:03;;;;;;;3.50;3.30;;;13.60;99.90;;;14.18;100.00;97097.31;10440032;28;20237;-64
2023/11/01 09:29:08;;;;;;;3.97;3.30;;;13.70;99.90;;;14.37;100.00;97093.59;10436333;28;20287;-65
2023/11/01 09:34:11;;;;;;;3.13;2.80;;;13.90;99.90;;;14.52;100.00;97097.50;10438805;28;20228;-65
2023/11/01 09:39:14;;;;;;;3.50;3.20;;;14.00;99.90;;;14.68;100.00;97099.69;10437158;28;20224;-65
2023/11/01 09:44:19;;;;;;;3.65;3.28;;;14.20;99.90;;;14.72;100.00;97096.34;10438191;28;20232;-64
2023/11/01 09:49:23;;;;;;;3.72;3.42;;;14.20;99.90;;;14.87;100.00;97096.78;10440544;28;20298;-65
2023/11/01 09:54:26;;;;;;;4.78;3.10;;;14.30;99.90;;;15.03;100.00;97086.94;10434252;28;20225;-66
2023/11/01 09:59:32;;;;;;;3.75;3.22;;;14.50;99.90;;;15.15;100.00;97079.53;10439029;28;20227;-65
2023/11/01 10:04:36;;;;;;;3.28;2.40;;;14.60;99.90;;;15.30;100.00;97074.75;10433781;28;20224;-65
2023/11/01 10:09:40;;;;;;;3.90;2.47;;;14.70;99.90;;;15.51;100.00;97081.31;10437677;28;20271;-65
2023/11/01 10:14:44;;;;;;;2.42;2.22;;;14.90;99.90;;;15.71;99.51;97072.41;10435153;28;20229;-65
2023/11/01 10:19:48;;;;;;;2.17;2.00;;;15.20;99.90;;;16.04;96.80;97078.31;10438000;28;20233;-65
2023/11/01 10:24:52;;;;;;;2.67;1.95;;;15.40;99.90;;;15.95;98.35;97073.81;10432388;28;20254;-65
2023/11/01 10:30:03;;;;;;;1.70;1.45;;;15.20;99.90;;;15.77;93.36;97059.66;10430965;28;20221;-65
2023/11/01 10:35:14;;;;;;;1.75;1.60;;;15.00;99.90;;;15.92;83.34;97045.38;10430818;28;20339;-65
2023/11/01 10:40:17;;;;;;;3.03;1.60;;;15.20;99.90;;;16.11;77.92;97037.25;10427425;28;20964;-65
2023/11/01 10:45:22;;;;;;;2.58;1.58;;;15.50;99.90;;;16.21;76.15;97015.09;10434169;28;20248;-65
2023/11/01 10:50:27;;;;;;;1.88;1.08;;;15.60;99.90;;;16.21;78.38;97015.94;10432246;28;20232;-65
2023/11/01 10:55:33;;;;;;;1.95;1.23;;;15.60;99.90;;;16.32;79.91;97000.72;10432322;28;20228;-65
2023/11/01 11:00:44;;;;;;;2.03;1.70;;;15.70;99.90;;;16.56;76.11;97004.63;10426526;28;20232;-65
2023/11/01 11:05:49;;;;;;;1.50;1.40;;;15.80;99.90;;;16.56;78.08;96991.72;10430978;28;20244;-65
2023/11/01 11:10:52;;;;;;;1.65;1.40;;;15.90;99.90;;;16.76;65.05;96985.25;10432732;28;20783;-65
2023/11/01 11:16:00;;;;;;;2.42;1.45;;;16.20;99.90;;;16.65;66.26;96976.41;10431716;28;20232;-65
2023/11/01 11:21:04;;;;;;;1.92;1.40;;;16.10;99.90;;;16.56;62.56;96966.78;10428472;28;20981;-66
2023/11/01 11:26:07;;;;;;;1.45;1.10;;;15.90;99.90;;;16.61;64.13;96962.59;10433691;28;20706;-65
2023/11/01 11:31:14;;;;;;;1.63;1.20;;;15.80;99.90;;;16.51;69.88;96952.06;10431250;28;20232;-65
2023/11/01 11:36:20;;;;;;;2.40;1.17;;;15.70;99.90;;;16.66;67.43;96945.50;10427171;28;20232;-66
2023/11/01 11:41:25;;;;;;;1.30;1.10;;;16.00;99.90;;;16.66;62.29;96937.75;10428505;28;20220;-65
2023/11/01 11:46:31;;;;;;;1.20;1.05;;;15.90;99.90;;;16.67;59.67;96936.03;10435661;28;20366;-66
2023/11/01 11:51:36;;;;;;;2.17;1.27;;;15.90;99.90;;;16.61;62.66;96934.22;10431761;28;20339;-66
2023/11/01 11:56:40;;;;;;;1.33;1.00;;;15.80;99.90;;;16.59;62.00;96930.72;10426842;28;20298;-66
2023/11/01 12:01:44;;;;;;;1.27;1.17;;;15.70;99.90;;;16.47;63.65;96914.16;10433719;28;20842;-66
2023/11/01 12:06:50;;;;;;;1.20;1.10;;;15.60;99.90;;;16.25;65.65;96918.88;10432462;28;20249;-66
2023/11/01 12:11:55;;;;;;;0.90;0.90;;;15.50;99.90;;;16.29;67.21;96919.84;10430284;28;20630;-66
2023/11/01 12:17:02;;;;;;;2.33;1.40;;;15.50;99.90;;;16.31;68.15;96912.97;10430931;28;20240;-66
2023/11/01 12:22:09;;;;;;;1.52;1.42;;;15.60;99.90;;;16.64;64.66;96910.19;10431335;28;20235;-67
2023/11/01 12:27:14;;;;;;;2.05;1.35;;;15.80;99.90;;;16.77;64.01;96896.69;10427544;28;20228;-66
2023/11/01 12:32:20;;;;;;;2.05;1.30;;;15.90;99.90;;;16.84;63.21;96897.66;10435685;28;20224;-66
2023/11/01 12:37:26;;;;;;;1.58;1.48;;;16.00;99.90;;;16.96;60.47;96890.09;10440946;28;20240;-66
2023/11/01 12:42:30;;;;;;;1.65;1.40;;;16.20;99.90;;;17.01;61.61;96888.47;10441302;28;20229;-66
2023/11/01 12:47:45;;;;;;;1.30;1.20;;;16.20;99.90;;;17.08;59.80;96869.66;10441079;28;20228;-66
2023/11/01 12:52:49;;;;;;;1.40;1.30;;;16.20;99.90;;;17.18;59.47;96869.78;10440331;28;20315;-66
2023/11/01 12:57:54;;;;;;;1.95;1.40;;;16.30;99.90;;;17.19;57.37;96863.78;10437487;28;20236;-66
2023/11/01 13:03:01;;;;;;;1.67;1.40;;;16.40;99.90;;;17.18;57.03;96850.00;10437815;28;20240;-66
2023/11/01 13:08:04;;;;;;;1.60;1.30;;;16.40;99.90;;;16.82;58.24;96848.56;10437861;28;20224;-66
2023/11/01 13:13:08;;;;;;;1.73;1.30;;;16.00;99.90;;;16.80;58.25;96845.13;10438565;28;20229;-66
2023/11/01 13:18:13;;;;;;;1.95;1.40;;;16.00;99.90;;;16.75;59.23;96840.69;10438241;28;20627;-67
2023/11/01 13:23:16;;;;;;;1.58;1.20;;;16.10;99.90;;;17.00;56.42;96832.53;10438106;28;20237;-66
2023/11/01 13:28:19;;;;;;;1.23;1.10;;;16.30;99.90;;;16.93;58.09;96827.22;10438262;28;20729;-66
2023/11/01 13:33:24;;;;;;;1.33;1.23;;;16.20;99.90;;;16.94;57.06;96819.53;10442502;28;20228;-66
2023/11/01 13:38:27;;;;;;;1.23;1.17;;;16.20;99.90;;;17.01;57.75;96821.34;10441032;28;20225;-66
2023/11/01 13:43:30;;;;;;;1.67;1.20;;;16.30;99.90;;;16.92;58.30;96820.34;10435389;28;20233;-66
2023/11/01 13:48:35;;;;;;;1.42;1.33;;;16.20;99.90;;;16.90;60.53;96825.47;10438445;28;20224;-66
2023/11/01 13:53:38;;;;;;;2.33;1.40;;;16.20;99.90;;;16.98;58.78;96805.81;10441129;28;20244;-67
2023/11/01 13:58:43;;;;;;;1.30;1.30;;;16.30;99.90;;;16.63;59.41;96798.38;10432446;28;20683;-67
2023/11/01 14:03:50;;;;;;;1.40;1.30;;;15.90;99.90;;;16.70;59.42;96803.63;10438497;28;20327;-66
2023/11/01 14:08:54;;;;;;;1.85;1.27;;;15.90;99.90;;;16.75;56.97;96801.97;10439608;28;20480;-67
2023/11/01 14:13:58;;;;;;;1.60;1.50;;;16.00;99.90;;;16.68;57.35;96780.34;10441474;28;20271;-65
2023/11/01 14:19:02;;;;;;;1.73;1.40;;;16.10;99.90;;;16.56;56.53;96777.59;10438156;28;20249;-65
2023/11/01 14:24:09;;;;;;;2.08;1.63;;;15.80;99.90;;;16.32;58.05;96778.06;10438852;28;20225;-65
2023/11/01 14:29:13;;;;;;;1.77;1.60;;;15.60;99.90;;;16.32;57.13;96770.31;10437984;28;20232;-65
2023/11/01 14:34:18;;;;;;;1.70;1.40;;;15.60;99.90;;;15.83;58.42;96767.75;10441904;28;20229;-66
2023/11/01 14:39:21;;;;;;;1.80;1.70;;;15.10;99.90;;;15.69;59.62;96777.78;10436042;28;20224;-66
2023/11/01 14:44:24;;;;;;;4.82;3.17;;;15.00;99.90;;;15.63;58.60;96776.78;10437233;28;20229;-65
2023/11/01 14:49:29;;;;;;;4.05;3.17;;;14.80;99.90;;;15.53;61.00;96765.41;10436959;28;20220;-65
2023/11/01 14:54:32;;;;;;;6.13;5.05;;;14.60;99.90;;;15.38;60.89;96777.97;10431703;28;20232;-65
2023/11/01 14:59:35;;;;;;;2.55;2.35;;;14.50;99.90;;;15.13;63.10;96774.88;10434543;28;20225;-65
2023/11/01 15:04:40;;;;;;;2.40;2.00;;;14.30;99.90;;;14.97;64.81;96772.81;10432995;28;20611;-65
2023/11/01 15:09:43;;;;;;;2.70;2.50;;;14.10;99.90;;;14.84;65.99;96777.66;10435463;28;20229;-65
2023/11/01 15:14:46;;;;;;;1.90;1.80;;;14.00;99.90;;;14.73;66.89;96763.69;10435276;28;21660;-65
2023/11/01 15:19:52;;;;;;;2.25;1.92;;;13.90;99.90;;;14.60;68.45;96761.69;10435913;28;20366;-65
2023/11/01 15:24:55;;;;;;;2.00;1.77;;;13.80;99.90;;;14.41;69.15;96761.19;10432738;28;20290;-66
2023/11/01 15:29:58;;;;;;;3.67;2.08;;;13.60;99.90;;;14.16;70.95;96759.75;10433898;28;20236;-66
2023/11/01 15:35:03;;;;;;;9.00;6.88;;;13.40;99.90;;;13.92;70.73;96749.69;10431308;28;20220;-66
2023/11/01 15:40:08;;;;;;;6.15;5.65;;;13.20;99.90;;;13.76;74.61;96755.25;10431451;28;20228;-67
2023/11/01 15:45:12;;;;;;;6.78;4.65;;;13.00;99.90;;;13.80;77.88;96757.09;10430141;28;20228;-66
2023/11/01 15:50:17;;;;;;;4.13;3.15;;;12.90;99.90;;;13.54;81.11;96760.66;10429151;28;20229;-66
2023/11/01 15:55:20;;;;;;;2.88;2.63;;;12.80;99.90;;;13.40;83.49;96753.44;10428956;28;20236;-65
2023/11/01 16:00:24;;;;;;;6.57;5.97;;;12.60;99.90;;;13.27;83.51;96761.59;10430134;28;20317;-65
2023/11/01 16:05:28;;;;;;;4.68;4.03;;;12.50;99.90;;;13.14;84.95;96754.34;10430310;28;20228;-65
2023/11/01 16:10:32;;;;;;;6.15;5.65;;;12.40;99.90;;;13.08;84.75;96748.22;10435949;28;20238;-65
2023/11/01 16:15:36;;;;;;;4.20;3.38;;;12.40;99.90;;;13.08;85.35;96749.91;10438298;28;20231;-66
2023/11/01 16:20:40;;;;;;;4.07;2.80;;;12.30;99.90;;;13.01;85.94;96753.97;10440741;28;20233;-66
2023/11/01 16:25:43;;;;;;;5.22;4.72;;;12.30;99.90;;;12.88;84.63;96736.50;10435790;28;20225;-66
2023/11/01 16:30:47;;;;;;;15.25;13.80;;;12.10;99.90;;;12.74;85.21;96751.47;10437287;28;20255;-66
2023/11/01 16:35:51;;;;;;;8.02;7.32;;;12.10;99.90;;;12.78;86.45;96755.00;10435349;28;20228;-66
2023/11/01 16:40:55;;;;;;;3.50;2.70;;;12.10;99.90;;;12.94;85.70;96770.03;10434689;28;20708;-66
2023/11/01 16:45:59;;;;;;;6.38;4.88;;;12.30;99.90;;;12.61;89.76;96764.72;10433036;28;20594;-66
2023/11/01 16:51:04;;;;;;;38.03;26.83;;;11.90;99.90;;;12.42;91.16;96768.41;10434375;28;20236;-65
2023/11/01 16:56:08;;;;;;;19.13;13.98;;;11.80;99.90;;;12.38;91.10;96766.56;10433879;28;20720;-66
2023/11/01 17:01:12;;;;;;;9.68;7.93;;;11.70;99.90;;;12.38;90.87;96759.72;10433899;28;20712;-65
2023/11/01 17:06:17;;;;;;;5.70;5.20;;;11.70;99.90;;;12.25;89.39;96755.06;10429913;28;20232;-65
2023/11/01 17:11:20;;;;;;;4.40;3.90;;;11.60;99.90;;;12.24;88.21;96749.88;10433757;28;20229;-66
2023/11/01 17:16:23;;;;;;;4.72;3.42;;;11.60;99.90;;;12.21;87.06;96757.47;10436345;28;20730;-66
2023/11/01 17:21:30;;;;;;;3.92;3.22;;;11.60;99.90;;;12.30;86.90;96745.81;10432390;28;20229;-65
2023/11/01 17:26:34;;;;;;;3.85;2.60;;;11.60;99.90;;;12.28;85.45;96749.16;10429067;28;20228;-65
2023/11/01 17:31:40;;;;;;;2.90;2.70;;;11.60;99.90;;;12.25;86.83;96747.38;10428994;28;20742;-65
2023/11/01 17:36:45;;;;;;;3.45;2.88;;;11.60;99.90;;;12.16;86.28;96740.25;10431225;28;20232;-65
2023/11/01 17:42:00;;;;;;;2.55;2.35;;;11.50;99.90;;;12.17;85.78;96731.75;10430294;28;20236;-65
2023/11/01 17:47:07;;;;;;;2.22;2.10;;;11.50;99.90;;;12.19;86.22;96731.81;10434463;28;20597;-66
2023/11/01 17:52:14;;;;;;;3.05;2.30;;;11.50;99.90;;;12.15;87.95;96723.13;10432575;28;20231;-65
2023/11/01 17:57:18;;;;;;;1.95;1.83;;;11.50;99.90;;;12.14;88.31;96726.53;10430978;28;20229;-65
2023/11/01 18:03:24;;;;;;;3.67;2.28;;;11.50;99.90;;;12.14;89.86;96735.91;10429189;28;20415;-65
2023/11/01 18:08:32;;;;;;;3.28;2.42;;;11.40;99.90;;;12.07;91.28;96727.13;10432852;28;20227;-65
2023/11/01 18:13:37;;;;;;;2.72;2.30;;;11.30;99.90;;;12.00;93.64;96735.44;10431385;28;21006;-65
2023/11/01 18:18:48;;;;;;;3.40;2.30;;;11.20;99.90;;;11.89;93.74;96722.28;10427799;28;20225;-66
2023/11/01 18:23:56;;;;;;;4.80;3.20;;;11.10;99.90;;;11.75;93.51;96717.47;10434622;28;20244;-65
2023/11/01 18:29:01;;;;;;;5.53;4.78;;;11.10;99.90;;;11.83;93.84;96732.28;10429618;28;20221;-65
2023/11/01 18:34:06;;;;;;;5.40;4.40;;;11.00;99.90;;;11.67;95.78;96737.69;10432340;28;21721;-66
2023/11/01 18:39:11;;;;;;;7.00;6.15;;;10.90;99.90;;;11.63;96.97;96744.41;10429197;28;20224;-65
2023/11/01 18:44:25;;;;;;;8.52;7.72;;;10.90;99.90;;;11.65;97.39;96742.78;10427859;28;20241;-65
2023/11/01 18:49:59;;;;;;;6.65;5.93;;;10.90;99.90;;;11.64;98.35;96751.25;10426573;28;20800;-65
2023/11/01 18:55:09;;;;;;;6.35;5.82;;;10.90;99.90;;;11.61;98.84;96740.91;10429680;28;20244;-65
2023/11/01 19:00:23;;;;;;;7.20;6.47;;;10.90;99.90;;;11.49;98.07;96749.03;10425781;28;20236;-65
2023/11/01 19:05:28;;;;;;;27.52;16.88;;;10.80;99.90;;;11.51;98.70;96756.78;10433291;28;20228;-65
2023/11/01 19:10:35;;;;;;;34.50;27.95;;;10.80;99.90;;;11.68;99.16;96762.50;10428427;28;21657;-65
2023/11/01 19:16:15;;;;;;;26.70;23.88;;;10.80;99.90;;;11.47;100.00;96742.09;10433261;28;20237;-65
2023/11/01 19:21:18;;;;;;;9.27;8.38;;;10.80;99.90;;;11.41;100.00;96739.34;10433006;28;20221;-65
2023/11/01 19:26:23;;;;;;;11.52;10.50;;;10.70;99.90;;;11.35;100.00;96752.78;10430278;28;20717;-65
2023/11/01 19:31:30;;;;;;;13.13;12.00;;;10.70;99.90;;;11.41;100.00;96742.75;10427184;28;20236;-64
2023/11/01 19:36:34;;;;;;;14.88;13.77;;;10.70;99.90;;;11.44;99.79;96722.41;10429605;28;20235;-65
2023/11/01 19:41:39;;;;;;;7.32;6.72;;;10.70;99.90;;;11.34;95.84;96722.91;10429667;28;20642;-65
2023/11/01 19:46:43;;;;;;;7.43;6.75;;;10.70;99.90;;;11.50;98.14;96721.75;10436477;28;20301;-66
2023/11/01 19:51:46;;;;;;;9.35;8.55;;;10.80;99.90;;;11.37;98.81;96715.34;10425299;28;20228;-64
2023/11/01 19:56:51;;;;;;;5.80;5.40;;;10.70;99.90;;;11.37;98.13;96715.34;10428896;28;20594;-64
2023/11/01 20:01:54;;;;;;;5.28;4.85;;;10.70;99.90;;;11.38;97.22;96703.41;10429604;28;20241;-65
2023/11/01 20:06:57;;;;;;;5.43;5.00;;;10.70;99.90;;;11.54;93.97;96698.03;10429296;28;20717;-65
2023/11/01 20:12:04;;;;;;;4.47;3.80;;;10.70;99.90;;;11.46;90.70;96695.19;10425345;28;20232;-65
2023/11/01 20:17:08;;;;;;;3.60;3.30;;;10.70;99.90;;;11.62;83.92;96688.91;10428585;28;20691;-65
2023/11/01 20:22:11;;;;;;;2.72;2.20;;;10.90;99.90;;;11.78;81.72;96699.66;10429396;28;20232;-65
2023/11/01 20:27:16;;;;;;;2.28;2.08;;;11.10;99.90;;;11.83;79.11;96698.13;10425542;28;20225;-64
2023/11/01 20:32:21;;;;;;;1.88;1.70;;;11.10;99.90;;;12.03;76.40;96699.69;10427842;28;20229;-65
2023/11/01 20:37:24;;;;;;;1.65;1.58;;;11.30;99.90;;;12.07;75.33;96704.06;10429478;28;20747;-66
2023/11/01 20:42:30;;;;;;;1.70;1.60;;;11.40;99.90;;;12.14;73.94;96698.34;10426044;28;20225;-65
2023/11/01 20:47:34;;;;;;;1.67;1.58;;;11.50;99.90;;;12.13;73.74;96706.84;10427284;28;20221;-65
2023/11/01 20:52:38;;;;;;;6.40;5.75;;;11.40;99.90;;;12.12;74.06;96710.22;10430989;28;20235;-65
2023/11/01 20:57:42;;;;;;;2.47;1.83;;;11.40;99.90;;;12.14;73.93;96706.03;10434208;28;20229;-65
2023/11/01 21:02:47;;;;;;;3.00;2.80;;;11.50;99.90;;;12.03;74.84;96684.31;10432544;28;20232;-65
2023/11/01 21:07:51;;;;;;;5.00;4.60;;;11.40;99.90;;;12.04;74.08;96692.88;10433983;28;20231;-65